createdAt,value
2023-04-26T00:00:54.008Z,1
2023-04-26T00:01:56.318Z,1
2023-04-26T00:02:58.608Z,0.9
2023-04-26T00:04:00.948Z,0.9
2023-04-26T00:05:04.235Z,0.9
2023-04-26T00:07:10.795Z,0.9
2023-04-26T00:08:14.195Z,1
2023-04-26T00:09:17.445Z,1
2023-04-26T00:10:20.722Z,0.9
2023-04-26T00:11:23.962Z,1.1
2023-04-26T00:12:27.260Z,1
2023-04-26T00:13:30.540Z,1.2
2023-04-26T00:14:33.847Z,1
2023-04-26T00:15:37.190Z,1.1
2023-04-26T00:16:40.546Z,1.1
2023-04-26T00:17:42.729Z,1.2
2023-04-26T00:18:46.129Z,1.4
2023-04-26T00:19:49.304Z,1.4
2023-04-26T00:20:52.740Z,1.1
2023-04-26T00:21:55.952Z,1.4
2023-04-26T00:22:59.225Z,1.4
2023-04-26T00:24:02.508Z,1.4
2023-04-26T00:25:05.775Z,1.5
2023-04-26T00:26:08.090Z,1.6
2023-04-26T00:27:11.720Z,1.6
2023-04-26T00:28:14.021Z,1.6
2023-04-26T00:29:16.442Z,1.5
2023-04-26T00:30:19.772Z,1.5
2023-04-26T00:31:22.902Z,1.5
2023-04-26T00:32:26.245Z,1.4
2023-04-26T00:33:29.543Z,1.8
2023-04-26T00:34:32.794Z,1.6
2023-04-26T00:35:36.087Z,1.8
2023-04-26T00:36:39.373Z,1.7
2023-04-26T00:37:42.657Z,1.8
2023-04-26T00:38:46.037Z,1.8
2023-04-26T00:39:49.288Z,1.8
2023-04-26T00:40:52.688Z,1.8
2023-04-26T00:41:55.873Z,1.9
2023-04-26T00:42:58.310Z,1.9
2023-04-26T00:44:01.468Z,1.9
2023-04-26T00:45:04.716Z,1.9
2023-04-26T00:46:08.010Z,1.9
2023-04-26T00:47:11.352Z,1.9
2023-04-26T00:48:14.587Z,1.8
2023-04-26T00:49:17.926Z,1.9
2023-04-26T00:50:20.221Z,1.9
2023-04-26T00:51:22.678Z,1.7
2023-04-26T00:52:24.834Z,1.8
2023-04-26T00:53:27.126Z,2.09
2023-04-26T00:54:30.442Z,1.8
2023-04-26T00:55:33.790Z,1.9
2023-04-26T00:56:37.022Z,1.8
2023-04-26T00:57:40.306Z,1.9
2023-04-26T00:58:43.633Z,1.7
2023-04-26T00:59:46.889Z,1.8
2023-04-26T01:00:50.197Z,1.9
2023-04-26T01:01:53.500Z,1.9
2023-04-26T01:04:00.121Z,1.9
2023-04-26T01:05:03.365Z,2.2
2023-04-26T01:06:06.671Z,2
2023-04-26T01:07:09.057Z,1.8
2023-04-26T01:08:12.282Z,1.9
2023-04-26T01:09:15.571Z,1.9
2023-04-26T01:10:18.863Z,2.09
2023-04-26T01:11:22.150Z,1.9
2023-04-26T01:12:25.438Z,2
2023-04-26T01:13:28.736Z,1.8
2023-04-26T01:14:32.046Z,2.09
2023-04-26T01:15:34.401Z,2.3
2023-04-26T01:16:36.660Z,1.8
2023-04-26T01:17:38.954Z,1.9
2023-04-26T01:18:41.425Z,1.9
2023-04-26T01:19:44.546Z,1.9
2023-04-26T01:20:47.829Z,1.9
2023-04-26T01:21:51.176Z,1.9
2023-04-26T01:22:54.502Z,1.8
2023-04-26T01:23:57.759Z,1.7
2023-04-26T01:25:01.016Z,1.9
2023-04-26T01:26:04.390Z,1.9
2023-04-26T01:27:07.588Z,1.7
2023-04-26T01:28:10.963Z,1.9
2023-04-26T01:29:14.262Z,1.8
2023-04-26T01:30:17.480Z,1.9
2023-04-26T01:31:20.797Z,1.6
2023-04-26T01:32:23.148Z,1.9
2023-04-26T01:33:26.383Z,1.8
2023-04-26T01:34:29.812Z,1.7
2023-04-26T01:35:32.950Z,1.8
2023-04-26T01:36:36.261Z,1.8
2023-04-26T01:37:39.595Z,1.6
2023-04-26T01:38:43.005Z,1.8
2023-04-26T01:39:45.296Z,1.6
2023-04-26T01:40:47.461Z,1.7
2023-04-26T01:41:49.777Z,1.6
2023-04-26T01:42:52.060Z,1.8
2023-04-26T01:43:55.391Z,1.6
2023-04-26T01:44:58.656Z,1.6
2023-04-26T01:46:02.048Z,1.5
2023-04-26T01:47:05.313Z,1.5
2023-04-26T01:48:08.532Z,1.6
2023-04-26T01:49:12.343Z,1.6
2023-04-26T01:50:15.631Z,1.6
2023-04-26T01:51:18.941Z,1.8
2023-04-26T01:52:22.162Z,1.5
2023-04-26T01:53:25.462Z,1.3
2023-04-26T01:54:28.807Z,1.4
2023-04-26T01:55:32.071Z,1.3
2023-04-26T01:56:34.440Z,1.6
2023-04-26T01:57:37.647Z,1.6
2023-04-26T01:58:41.102Z,1.4
2023-04-26T01:59:44.229Z,1.5
2023-04-26T02:00:47.531Z,1.4
2023-04-26T02:01:50.807Z,1.6
2023-04-26T02:02:54.109Z,1.3
2023-04-26T02:03:56.448Z,1.5
2023-04-26T02:04:58.820Z,1.3
2023-04-26T02:06:01.080Z,1.4
2023-04-26T02:07:03.418Z,1.4
2023-04-26T02:08:06.671Z,1.4
2023-04-26T02:09:09.931Z,1.2
2023-04-26T02:10:13.264Z,1.3
2023-04-26T02:11:16.522Z,1.5
2023-04-26T02:12:19.813Z,1.2
2023-04-26T02:13:23.140Z,1.7
2023-04-26T02:14:26.400Z,1.4
2023-04-26T02:15:29.674Z,1.4
2023-04-26T02:16:32.989Z,1.5
2023-04-26T02:17:36.299Z,1.3
2023-04-26T02:18:39.661Z,1.5
2023-04-26T02:19:43.033Z,1.2
2023-04-26T02:20:45.149Z,1.5
2023-04-26T02:21:48.466Z,1.3
2023-04-26T02:22:51.743Z,1.2
2023-04-26T02:23:54.164Z,1.4
2023-04-26T02:24:57.386Z,1.2
2023-04-26T02:26:00.642Z,1.4
2023-04-26T02:27:04.007Z,1.3
2023-04-26T02:28:07.283Z,1.3
2023-04-26T02:29:09.562Z,1.4
2023-04-26T02:30:11.857Z,1.2
2023-04-26T02:31:14.172Z,1.4
2023-04-26T02:32:16.508Z,1.4
2023-04-26T02:33:19.804Z,1.4
2023-04-26T02:34:23.064Z,1.2
2023-04-26T02:35:26.355Z,1.4
2023-04-26T02:36:29.644Z,1.3
2023-04-26T02:37:32.907Z,1.4
2023-04-26T02:38:36.217Z,1.3
2023-04-26T02:39:39.648Z,1.3
2023-04-26T02:40:42.809Z,1.3
2023-04-26T02:41:46.086Z,1.3
2023-04-26T02:42:49.402Z,1.5
2023-04-26T02:43:52.711Z,1.4
2023-04-26T02:44:56.035Z,1.4
2023-04-26T02:45:58.265Z,1.3
2023-04-26T02:47:01.661Z,1.4
2023-04-26T02:48:04.874Z,1.4
2023-04-26T02:49:08.331Z,1.1
2023-04-26T02:50:11.486Z,1.4
2023-04-26T02:51:14.832Z,1.3
2023-04-26T02:52:18.030Z,1.4
2023-04-26T02:53:20.387Z,1.3
2023-04-26T02:54:22.795Z,1.3
2023-04-26T02:55:24.952Z,1.3
2023-04-26T02:56:27.331Z,1.5
2023-04-26T02:57:30.556Z,1.2
2023-04-26T02:58:33.840Z,1.2
2023-04-26T02:59:37.251Z,1.2
2023-04-26T03:00:40.430Z,1.3
2023-04-26T03:01:43.787Z,1.2
2023-04-26T03:02:46.999Z,1.3
2023-04-26T03:03:50.310Z,1.4
2023-04-26T03:04:53.604Z,1.4
2023-04-26T03:05:56.892Z,1.4
2023-04-26T03:07:00.196Z,1.5
2023-04-26T03:08:03.469Z,1.2
2023-04-26T03:09:07.100Z,1.2
2023-04-26T03:10:09.357Z,1.3
2023-04-26T03:11:13.052Z,1.3
2023-04-26T03:12:16.273Z,1.4
2023-04-26T03:13:19.573Z,1.3
2023-04-26T03:14:22.870Z,1.4
2023-04-26T03:15:26.184Z,1.2
2023-04-26T03:16:29.443Z,1.3
2023-04-26T03:17:31.762Z,1.3
2023-04-26T03:18:34.079Z,1.4
2023-04-26T03:19:37.358Z,1.4
2023-04-26T03:20:39.764Z,1.3
2023-04-26T03:21:42.000Z,1.5
2023-04-26T03:22:45.284Z,1.4
2023-04-26T03:23:48.564Z,1.4
2023-04-26T03:24:51.878Z,1.3
2023-04-26T03:25:55.147Z,1.4
2023-04-26T03:26:58.459Z,1.3
2023-04-26T03:28:01.803Z,1.4
2023-04-26T03:29:05.094Z,1.3
2023-04-26T03:30:08.330Z,1.4
2023-04-26T03:31:11.624Z,1.4
2023-04-26T03:32:14.915Z,1.3
2023-04-26T03:33:18.207Z,1.3
2023-04-26T03:34:21.498Z,1.2
2023-04-26T03:35:23.789Z,1.4
2023-04-26T03:36:27.106Z,1.3
2023-04-26T03:37:30.397Z,1.3
2023-04-26T03:38:33.671Z,1.4
2023-04-26T03:39:36.968Z,1.3
2023-04-26T03:40:40.255Z,1.3
2023-04-26T03:41:43.597Z,1.4
2023-04-26T03:42:45.866Z,1.3
2023-04-26T03:43:48.178Z,1.2
2023-04-26T03:44:50.480Z,1.3
2023-04-26T03:45:52.809Z,1.2
2023-04-26T03:46:56.103Z,1.3
2023-04-26T03:47:59.377Z,1.3
2023-04-26T03:49:02.727Z,1.2
2023-04-26T03:50:05.962Z,1.1
2023-04-26T03:51:09.311Z,1.2
2023-04-26T03:52:12.579Z,1.3
2023-04-26T03:53:15.832Z,1.2
2023-04-26T03:54:19.123Z,1.1
2023-04-26T03:55:22.428Z,1.3
2023-04-26T03:56:25.755Z,1.1
2023-04-26T03:57:29.017Z,1.2
2023-04-26T03:58:32.299Z,1.1
2023-04-26T03:59:34.668Z,1.1
2023-04-26T04:00:37.890Z,1.2
2023-04-26T04:01:41.181Z,1.3
2023-04-26T04:02:44.480Z,1.2
2023-04-26T04:03:47.781Z,1.3
2023-04-26T04:04:51.078Z,1
2023-04-26T04:05:54.353Z,1.1
2023-04-26T04:06:56.685Z,1.1
2023-04-26T04:07:58.985Z,1.2
2023-04-26T04:09:02.259Z,1.1
2023-04-26T04:10:05.567Z,1.2
2023-04-26T04:11:08.855Z,1.1
2023-04-26T04:12:12.194Z,1.1
2023-04-26T04:13:15.434Z,1
2023-04-26T04:14:18.722Z,1
2023-04-26T04:15:22.023Z,1.2
2023-04-26T04:16:25.355Z,1
2023-04-26T04:17:28.607Z,1.2
2023-04-26T04:18:31.979Z,1.2
2023-04-26T04:19:35.199Z,1
2023-04-26T04:20:38.532Z,1
2023-04-26T04:21:40.790Z,1
2023-04-26T04:22:44.077Z,1.1
2023-04-26T04:23:47.366Z,0.9
2023-04-26T04:24:50.665Z,1.1
2023-04-26T04:25:53.961Z,1
2023-04-26T04:26:57.229Z,1
2023-04-26T04:28:00.596Z,1
2023-04-26T04:29:02.983Z,1
2023-04-26T04:30:05.199Z,1
2023-04-26T04:31:07.515Z,1.1
2023-04-26T04:32:09.766Z,1.1
2023-04-26T04:33:13.395Z,0.9
2023-04-26T04:34:16.650Z,1
2023-04-26T04:35:19.960Z,1
2023-04-26T04:36:23.264Z,1.1
2023-04-26T04:37:26.538Z,1.1
2023-04-26T04:38:29.934Z,1.1
2023-04-26T04:39:33.191Z,1
2023-04-26T04:40:36.414Z,1.1
2023-04-26T04:41:39.766Z,1
2023-04-26T04:42:43.019Z,1
2023-04-26T04:43:46.286Z,1
2023-04-26T04:44:49.602Z,1.3
2023-04-26T04:45:51.898Z,1.1
2023-04-26T04:46:55.234Z,1
2023-04-26T04:47:58.540Z,1
2023-04-26T04:49:01.764Z,1.1
2023-04-26T04:50:05.145Z,1.2
2023-04-26T04:51:08.394Z,0.9
2023-04-26T04:52:11.633Z,1.1
2023-04-26T04:53:13.957Z,1
2023-04-26T04:54:16.260Z,0.9
2023-04-26T04:55:18.614Z,1
2023-04-26T04:56:20.931Z,1
2023-04-26T04:57:24.170Z,1.3
2023-04-26T04:58:27.465Z,1
2023-04-26T04:59:30.887Z,1
2023-04-26T05:00:34.059Z,0.9
2023-04-26T05:01:37.359Z,1.1
2023-04-26T05:02:40.643Z,1.1
2023-04-26T05:03:44.034Z,1
2023-04-26T05:04:47.227Z,1
2023-04-26T05:05:50.591Z,0.9
2023-04-26T05:06:53.824Z,0.9
2023-04-26T05:07:57.177Z,1
2023-04-26T05:09:00.383Z,1
2023-04-26T05:10:02.692Z,1
2023-04-26T05:11:06.005Z,1
2023-04-26T05:12:09.281Z,1.1
2023-04-26T05:13:12.570Z,1.1
2023-04-26T05:14:15.922Z,1
2023-04-26T05:15:19.164Z,0.9
2023-04-26T05:16:22.472Z,1.1
2023-04-26T05:17:24.824Z,1
2023-04-26T05:18:27.143Z,1
2023-04-26T05:19:29.397Z,1
2023-04-26T05:20:31.717Z,1.1
2023-04-26T05:21:35.011Z,1
2023-04-26T05:22:38.359Z,1
2023-04-26T05:23:41.681Z,0.9
2023-04-26T05:24:44.907Z,0.9
2023-04-26T05:25:48.160Z,1
2023-04-26T05:26:51.527Z,1
2023-04-26T05:27:54.867Z,1.1
2023-04-26T05:28:58.117Z,1.1
2023-04-26T05:30:01.357Z,1
2023-04-26T05:31:04.622Z,1
2023-04-26T05:32:07.915Z,0.9
2023-04-26T05:33:11.188Z,1
2023-04-26T05:34:13.490Z,1.1
2023-04-26T05:35:16.786Z,1
2023-04-26T05:36:20.100Z,0.9
2023-04-26T05:37:23.533Z,0.9
2023-04-26T05:38:26.730Z,1.1
2023-04-26T05:39:30.041Z,1.2
2023-04-26T05:40:33.286Z,1.1
2023-04-26T05:41:35.581Z,1.2
2023-04-26T05:42:37.898Z,1.1
2023-04-26T05:43:40.310Z,1
2023-04-26T05:44:42.569Z,0.9
2023-04-26T05:45:45.801Z,0.9
2023-04-26T05:46:49.080Z,0.9
2023-04-26T05:47:52.399Z,0.9
2023-04-26T05:48:55.702Z,1
2023-04-26T05:49:58.979Z,0.9
2023-04-26T05:51:02.256Z,1.1
2023-04-26T05:52:05.667Z,1
2023-04-26T05:53:08.944Z,1
2023-04-26T05:54:12.115Z,0.9
2023-04-26T05:55:14.508Z,1
2023-04-26T05:56:17.735Z,1
2023-04-26T05:57:21.048Z,0.9
2023-04-26T05:58:24.337Z,0.9
2023-04-26T05:59:27.656Z,0.9
2023-04-26T06:00:30.890Z,1
2023-04-26T06:01:34.277Z,1
2023-04-26T06:02:37.482Z,1
2023-04-26T06:03:40.877Z,1
2023-04-26T06:04:44.139Z,1
2023-04-26T06:05:46.401Z,1
2023-04-26T06:06:48.690Z,1
2023-04-26T06:07:50.986Z,0.9
2023-04-26T06:08:53.336Z,1
2023-04-26T06:09:56.633Z,1.1
2023-04-26T06:10:59.945Z,1.1
2023-04-26T06:12:03.280Z,0.8
2023-04-26T06:13:06.457Z,1
2023-04-26T06:14:09.812Z,0.9
2023-04-26T06:15:13.110Z,0.9
2023-04-26T06:16:16.357Z,0.9
2023-04-26T06:17:19.772Z,1
2023-04-26T06:18:22.924Z,0.8
2023-04-26T06:19:26.292Z,1.1
2023-04-26T06:20:29.536Z,0.9
2023-04-26T06:21:32.799Z,0.9
2023-04-26T06:22:35.110Z,0.9
2023-04-26T06:23:38.552Z,1
2023-04-26T06:24:41.740Z,0.8
2023-04-26T06:25:44.997Z,1.1
2023-04-26T06:26:48.286Z,0.9
2023-04-26T06:27:51.571Z,1
2023-04-26T06:28:54.940Z,0.7
2023-04-26T06:29:57.181Z,0.8
2023-04-26T06:30:59.477Z,0.9
2023-04-26T06:32:01.815Z,0.9
2023-04-26T06:33:04.109Z,0.9
2023-04-26T06:34:07.535Z,0.9
2023-04-26T06:35:11.134Z,1
2023-04-26T06:36:14.375Z,0.8
2023-04-26T06:37:17.605Z,0.8
2023-04-26T06:38:20.966Z,0.8
2023-04-26T06:39:24.210Z,0.8
2023-04-26T06:40:27.641Z,0.8
2023-04-26T06:41:30.781Z,0.8
2023-04-26T06:42:34.228Z,0.7
2023-04-26T06:43:37.350Z,0.8
2023-04-26T06:44:40.657Z,0.7
2023-04-26T06:45:43.962Z,0.8
2023-04-26T06:46:46.279Z,0.7
2023-04-26T06:47:49.548Z,1
2023-04-26T06:48:52.919Z,0.8
2023-04-26T06:49:56.287Z,1
2023-04-26T06:50:59.484Z,1
2023-04-26T06:52:02.796Z,0.9
2023-04-26T06:53:06.053Z,0.8
2023-04-26T06:54:08.309Z,0.9
2023-04-26T06:55:10.621Z,0.6
2023-04-26T06:56:14.252Z,0.9
2023-04-26T06:57:17.533Z,0.7
2023-04-26T06:58:20.830Z,0.9
2023-04-26T06:59:24.141Z,0.9
2023-04-26T07:00:27.410Z,1
2023-04-26T07:01:30.704Z,0.9
2023-04-26T07:02:33.970Z,0.8
2023-04-26T07:03:37.360Z,0.8
2023-04-26T07:04:40.575Z,0.9
2023-04-26T07:05:43.857Z,1
2023-04-26T07:06:47.186Z,0.8
2023-04-26T07:07:50.465Z,0.8
2023-04-26T07:08:52.858Z,0.8
2023-04-26T07:09:56.065Z,0.8
2023-04-26T07:10:59.482Z,0.8
2023-04-26T07:12:02.619Z,1
2023-04-26T07:13:05.975Z,1.2
2023-04-26T07:14:09.365Z,0.8
2023-04-26T07:15:12.622Z,0.9
2023-04-26T07:16:14.833Z,0.9
2023-04-26T07:17:17.174Z,0.8
2023-04-26T07:18:19.492Z,0.9
2023-04-26T07:19:21.751Z,0.8
2023-04-26T07:20:24.157Z,0.7
2023-04-26T07:21:26.421Z,0.8
2023-04-26T07:22:29.693Z,0.9
2023-04-26T07:23:32.956Z,0.7
2023-04-26T07:24:36.277Z,0.7
2023-04-26T07:25:39.639Z,0.7
2023-04-26T07:26:42.863Z,0.8
2023-04-26T07:27:46.133Z,0.8
2023-04-26T07:28:49.456Z,0.8
2023-04-26T07:29:52.702Z,0.7
2023-04-26T07:30:56.017Z,0.8
2023-04-26T07:31:59.374Z,0.7
2023-04-26T07:33:02.689Z,0.8
2023-04-26T07:34:05.877Z,0.8
2023-04-26T07:35:09.217Z,0.7
2023-04-26T07:36:11.485Z,0.8
2023-04-26T07:37:14.794Z,0.8
2023-04-26T07:38:18.064Z,0.6
2023-04-26T07:39:21.338Z,0.7
2023-04-26T07:40:24.716Z,0.8
2023-04-26T07:41:28.126Z,0.6
2023-04-26T07:42:30.239Z,0.6
2023-04-26T07:43:32.570Z,0.7
2023-04-26T07:44:35.928Z,0.7
2023-04-26T07:45:39.167Z,0.7
2023-04-26T07:46:42.450Z,0.7
2023-04-26T07:47:45.712Z,0.6
2023-04-26T07:48:49.017Z,0.7
2023-04-26T07:49:52.384Z,0.6
2023-04-26T07:50:55.626Z,0.9
2023-04-26T07:51:58.969Z,0.8
2023-04-26T07:53:02.226Z,0.9
2023-04-26T07:54:05.482Z,0.8
2023-04-26T07:55:08.891Z,0.8
2023-04-26T07:56:12.160Z,0.7
2023-04-26T07:57:14.366Z,0.8
2023-04-26T07:58:17.678Z,0.6
2023-04-26T07:59:20.946Z,0.6
2023-04-26T08:00:24.261Z,0.7
2023-04-26T08:01:27.550Z,0.5
2023-04-26T08:02:30.819Z,0.7
2023-04-26T08:03:34.142Z,0.7
2023-04-26T08:04:36.428Z,0.7
2023-04-26T08:05:38.767Z,0.6
2023-04-26T08:06:41.180Z,0.7
2023-04-26T08:07:43.386Z,0.9
2023-04-26T08:08:46.661Z,0.8
2023-04-26T08:09:48.964Z,0.7
2023-04-26T08:10:51.323Z,0.7
2023-04-26T08:11:54.567Z,0.7
2023-04-26T08:12:57.894Z,0.6
2023-04-26T08:14:01.163Z,0.7
2023-04-26T08:15:04.441Z,0.7
2023-04-26T08:16:07.899Z,1
2023-04-26T08:17:11.022Z,0.6
2023-04-26T08:18:14.721Z,0.8
2023-04-26T08:19:18.123Z,0.8
2023-04-26T08:20:21.367Z,0.9
2023-04-26T08:21:24.594Z,0.9
2023-04-26T08:22:27.874Z,0.7
2023-04-26T08:23:31.179Z,1
2023-04-26T08:24:33.586Z,0.7
2023-04-26T08:25:36.783Z,0.8
2023-04-26T08:26:40.183Z,0.7
2023-04-26T08:27:43.367Z,0.9
2023-04-26T08:28:46.652Z,0.8
2023-04-26T08:29:49.930Z,0.8
2023-04-26T08:30:53.232Z,0.7
2023-04-26T08:31:55.532Z,0.8
2023-04-26T08:32:57.911Z,0.6
2023-04-26T08:34:00.201Z,0.8
2023-04-26T08:35:02.488Z,0.7
2023-04-26T08:36:05.875Z,0.7
2023-04-26T08:37:09.149Z,0.7
2023-04-26T08:38:12.499Z,0.6
2023-04-26T08:39:15.689Z,0.7
2023-04-26T08:40:18.969Z,0.7
2023-04-26T08:41:22.262Z,0.5
2023-04-26T08:42:25.570Z,0.6
2023-04-26T08:43:28.846Z,0.7
2023-04-26T08:44:32.171Z,0.6
2023-04-26T08:45:35.487Z,0.7
2023-04-26T08:46:38.805Z,0.6
2023-04-26T08:47:41.988Z,0.6
2023-04-26T08:48:44.291Z,0.5
2023-04-26T08:49:47.603Z,0.5
2023-04-26T08:50:50.948Z,0.7
2023-04-26T08:51:54.226Z,0.7
2023-04-26T08:52:57.557Z,0.6
2023-04-26T08:54:00.817Z,0.6
2023-04-26T08:55:04.219Z,0.6
2023-04-26T08:56:06.482Z,0.7
2023-04-26T08:57:09.692Z,0.6
2023-04-26T08:58:11.999Z,0.5
2023-04-26T08:59:14.318Z,0.5
2023-04-26T09:00:17.544Z,0.6
2023-04-26T09:01:20.909Z,0.6
2023-04-26T09:02:24.145Z,0.6
2023-04-26T09:03:27.428Z,0.7
2023-04-26T09:04:30.774Z,0.7
2023-04-26T09:05:34.058Z,0.5
2023-04-26T09:06:37.398Z,0.4
2023-04-26T09:07:40.665Z,0.6
2023-04-26T09:08:43.978Z,0.5
2023-04-26T09:09:47.204Z,0.5
2023-04-26T09:10:50.468Z,0.6
2023-04-26T09:11:54.003Z,0.5
2023-04-26T09:12:56.216Z,0.7
2023-04-26T09:13:59.383Z,0.5
2023-04-26T09:15:02.779Z,0.5
2023-04-26T09:16:06.011Z,0.5
2023-04-26T09:17:09.241Z,0.6
2023-04-26T09:18:12.647Z,0.6
2023-04-26T09:19:15.817Z,0.6
2023-04-26T09:20:18.138Z,0.7
2023-04-26T09:21:20.444Z,0.7
2023-04-26T09:22:22.742Z,0.7
2023-04-26T09:23:25.056Z,0.7
2023-04-26T09:24:28.382Z,0.6
2023-04-26T09:25:31.639Z,0.5
2023-04-26T09:26:33.957Z,0.6
2023-04-26T09:27:37.246Z,0.5
2023-04-26T09:28:40.574Z,0.8
2023-04-26T09:29:43.890Z,0.8
2023-04-26T09:30:47.132Z,0.6
2023-04-26T09:31:50.415Z,0.6
2023-04-26T09:32:53.719Z,0.8
2023-04-26T09:33:56.984Z,0.7
2023-04-26T09:35:00.302Z,0.6
2023-04-26T09:36:03.590Z,0.8
2023-04-26T09:37:06.878Z,0.7
2023-04-26T09:38:10.171Z,0.5
2023-04-26T09:39:13.457Z,0.6
2023-04-26T09:40:15.763Z,0.9
2023-04-26T09:41:19.058Z,0.7
2023-04-26T09:42:22.367Z,0.6
2023-04-26T09:43:25.721Z,0.7
2023-04-26T09:44:28.015Z,0.7
2023-04-26T09:45:30.263Z,0.6
2023-04-26T09:46:32.583Z,0.7
2023-04-26T09:47:34.966Z,0.6
2023-04-26T09:48:38.260Z,0.6
2023-04-26T09:49:41.611Z,0.7
2023-04-26T09:50:44.809Z,0.7
2023-04-26T09:51:48.057Z,0.7
2023-04-26T09:52:51.388Z,0.8
2023-04-26T09:53:54.698Z,0.7
2023-04-26T09:54:57.938Z,0.6
2023-04-26T09:56:01.214Z,0.6
2023-04-26T09:57:04.528Z,0.7
2023-04-26T09:58:07.869Z,0.6
2023-04-26T09:59:11.343Z,0.4
2023-04-26T10:00:14.616Z,0.6
2023-04-26T10:01:16.861Z,0.7
2023-04-26T10:02:20.128Z,0.6
2023-04-26T10:03:23.293Z,0.5
2023-04-26T10:04:26.594Z,0.6
2023-04-26T10:05:29.960Z,0.4
2023-04-26T10:06:33.325Z,0.5
2023-04-26T10:07:36.626Z,0.5
2023-04-26T10:08:38.895Z,0.5
2023-04-26T10:09:41.241Z,0.4
2023-04-26T10:10:43.566Z,0.4
2023-04-26T10:11:45.857Z,0.5
2023-04-26T10:12:49.139Z,0.5
2023-04-26T10:13:52.444Z,0.5
2023-04-26T10:14:55.660Z,0.4
2023-04-26T10:15:58.988Z,0.6
2023-04-26T10:17:02.148Z,0.5
2023-04-26T10:18:05.574Z,0.5
2023-04-26T10:19:08.807Z,0.4
2023-04-26T10:20:12.589Z,0.5
2023-04-26T10:21:15.958Z,0.5
2023-04-26T10:22:19.304Z,0.5
2023-04-26T10:23:22.517Z,0.4
2023-04-26T10:24:25.794Z,0.4
2023-04-26T10:25:28.160Z,0.4
2023-04-26T10:26:31.420Z,0.5
2023-04-26T10:27:34.672Z,0.5
2023-04-26T10:28:38.091Z,0.5
2023-04-26T10:29:41.283Z,0.4
2023-04-26T10:30:44.528Z,0.5
2023-04-26T10:31:47.820Z,0.4
2023-04-26T10:32:50.231Z,0.4
2023-04-26T10:33:52.435Z,0.4
2023-04-26T10:34:55.756Z,0.4
2023-04-26T10:35:58.082Z,0.3
2023-04-26T10:37:00.371Z,0.4
2023-04-26T10:38:03.649Z,0.4
2023-04-26T10:39:06.963Z,0.5
2023-04-26T10:40:10.357Z,0.4
2023-04-26T10:41:13.683Z,0.3
2023-04-26T10:42:17.007Z,0.4
2023-04-26T10:43:20.291Z,0.4
2023-04-26T10:44:23.635Z,0.4
2023-04-26T10:45:26.917Z,0.4
2023-04-26T10:46:30.028Z,0.3
2023-04-26T10:47:33.373Z,0.3
2023-04-26T10:48:36.716Z,0.5
2023-04-26T10:49:39.854Z,0.4
2023-04-26T10:50:42.161Z,0.3
2023-04-26T10:51:45.462Z,0.3
2023-04-26T10:52:48.742Z,0.4
2023-04-26T10:53:52.046Z,0.3
2023-04-26T10:54:55.335Z,0.3
2023-04-26T10:55:58.619Z,0.3
2023-04-26T10:57:01.951Z,0.3
2023-04-26T10:58:04.273Z,0.4
2023-04-26T10:59:06.527Z,0.5
2023-04-26T11:00:08.865Z,0.3
2023-04-26T11:01:11.166Z,0.4
2023-04-26T11:02:14.505Z,0.3
2023-04-26T11:03:17.759Z,0.3
2023-04-26T11:04:21.029Z,0.3
2023-04-26T11:05:24.336Z,0.3
2023-04-26T11:06:27.663Z,0.4
2023-04-26T11:07:30.953Z,0.4
2023-04-26T11:08:34.208Z,0.4
2023-04-26T11:09:37.520Z,0.4
2023-04-26T11:10:40.777Z,0.3
2023-04-26T11:11:44.076Z,0.5
2023-04-26T11:12:47.369Z,0.4
2023-04-26T11:13:50.665Z,0.5
2023-04-26T11:14:52.980Z,0.3
2023-04-26T11:15:56.267Z,0.3
2023-04-26T11:16:59.570Z,0.5
2023-04-26T11:18:02.841Z,0.3
2023-04-26T11:19:06.134Z,0.4
2023-04-26T11:20:09.808Z,0.4
2023-04-26T11:21:13.098Z,0.4
2023-04-26T11:22:15.466Z,0.3
2023-04-26T11:23:17.738Z,0.6
2023-04-26T11:24:21.026Z,0.3
2023-04-26T11:25:24.318Z,0.4
2023-04-26T11:26:27.588Z,0.4
2023-04-26T11:27:30.887Z,0.4
2023-04-26T11:28:34.188Z,0.3
2023-04-26T11:29:37.553Z,0.5
2023-04-26T11:30:40.771Z,0.4
2023-04-26T11:31:44.051Z,0.5
2023-04-26T11:32:47.373Z,0.4
2023-04-26T11:33:50.675Z,0.5
2023-04-26T11:34:53.946Z,0.4
2023-04-26T11:35:57.230Z,0.4
2023-04-26T11:36:59.530Z,0.4
2023-04-26T11:38:02.818Z,0.3
2023-04-26T11:39:06.283Z,0.3
2023-04-26T11:40:09.574Z,0.4
2023-04-26T11:41:12.944Z,0.4
2023-04-26T11:42:16.253Z,0.3
2023-04-26T11:43:19.655Z,0.4
2023-04-26T11:44:22.000Z,0.3
2023-04-26T11:45:24.296Z,0.5
2023-04-26T11:46:26.470Z,0.6
2023-04-26T11:47:28.956Z,0.6
2023-04-26T11:48:32.233Z,0.7
2023-04-26T11:49:35.607Z,0.8
2023-04-26T11:50:38.639Z,1.1
2023-04-26T11:51:42.167Z,1
2023-04-26T11:52:45.240Z,1
2023-04-26T11:53:48.644Z,0.8
2023-04-26T11:54:51.860Z,1
2023-04-26T11:55:55.110Z,0.9
2023-04-26T11:56:58.472Z,0.9
2023-04-26T11:58:01.693Z,0.9
2023-04-26T11:59:05.109Z,0.8
2023-04-26T12:00:08.315Z,0.9
2023-04-26T12:01:10.590Z,0.9
2023-04-26T12:02:13.878Z,1
2023-04-26T12:03:17.166Z,0.7
2023-04-26T12:04:20.457Z,0.8
2023-04-26T12:05:23.754Z,0.7
2023-04-26T12:06:27.273Z,0.8
2023-04-26T12:07:30.339Z,0.7
2023-04-26T12:08:32.665Z,0.7
2023-04-26T12:09:35.054Z,0.7
2023-04-26T12:10:37.315Z,0.7
2023-04-26T12:11:39.692Z,0.7
2023-04-26T12:12:42.886Z,0.6
2023-04-26T12:13:46.170Z,0.6
2023-04-26T12:14:49.645Z,0.8
2023-04-26T12:15:52.919Z,0.6
2023-04-26T12:16:56.166Z,0.7
2023-04-26T12:17:59.396Z,0.5
2023-04-26T12:19:02.867Z,0.6
2023-04-26T12:20:06.066Z,0.5
2023-04-26T12:21:09.216Z,0.7
2023-04-26T12:22:12.620Z,0.7
2023-04-26T12:23:15.956Z,0.7
2023-04-26T12:24:19.155Z,0.6
2023-04-26T12:25:21.422Z,0.6
2023-04-26T12:26:24.682Z,0.5
2023-04-26T12:27:28.110Z,0.6
2023-04-26T12:28:31.421Z,0.5
2023-04-26T12:29:34.735Z,0.6
2023-04-26T12:30:37.901Z,0.6
2023-04-26T12:31:41.272Z,0.5
2023-04-26T12:32:43.545Z,0.5
2023-04-26T12:33:45.759Z,0.5
2023-04-26T12:34:48.079Z,0.5
2023-04-26T12:35:50.548Z,0.5
2023-04-26T12:36:53.825Z,0.6
2023-04-26T12:37:56.969Z,0.6
2023-04-26T12:39:00.256Z,0.6
2023-04-26T12:40:03.647Z,0.6
2023-04-26T12:41:06.934Z,0.5
2023-04-26T12:42:10.408Z,0.5
2023-04-26T12:43:13.708Z,0.5
2023-04-26T12:44:17.001Z,0.4
2023-04-26T12:45:20.281Z,0.4
2023-04-26T12:46:23.612Z,0.5
2023-04-26T12:47:26.859Z,0.4
2023-04-26T12:48:30.154Z,0.5
2023-04-26T12:49:32.469Z,0.4
2023-04-26T12:50:35.738Z,0.4
2023-04-26T12:51:39.056Z,0.4
2023-04-26T12:52:42.335Z,0.4
2023-04-26T12:53:45.634Z,0.4
2023-04-26T12:54:48.928Z,0.3
2023-04-26T12:55:52.220Z,0.3
2023-04-26T12:56:54.531Z,0.4
2023-04-26T12:57:56.831Z,0.4
2023-04-26T12:58:59.149Z,0.4
2023-04-26T13:00:01.470Z,0.4
2023-04-26T13:01:04.772Z,0.5
2023-04-26T13:02:08.041Z,0.3
2023-04-26T13:03:11.356Z,0.4
2023-04-26T13:04:14.665Z,0.5
2023-04-26T13:05:17.974Z,0.4
2023-04-26T13:06:21.344Z,0.4
2023-04-26T13:07:24.623Z,0.4
2023-04-26T13:08:28.004Z,0.5
2023-04-26T13:09:31.076Z,0.4
2023-04-26T13:10:34.374Z,0.4
2023-04-26T13:11:37.686Z,0.4
2023-04-26T13:12:40.978Z,0.4
2023-04-26T13:13:43.289Z,0.4
2023-04-26T13:14:46.564Z,0.4
2023-04-26T13:15:49.860Z,0.3
2023-04-26T13:16:53.146Z,0.5
2023-04-26T13:17:56.424Z,0.4
2023-04-26T13:18:59.716Z,0.4
2023-04-26T13:20:03.014Z,0.4
2023-04-26T13:21:05.323Z,0.3
2023-04-26T13:23:10.923Z,0.3
2023-04-26T13:24:13.643Z,0.4
2023-04-26T13:25:15.929Z,0.4
2023-04-26T13:26:19.220Z,0.3
2023-04-26T13:27:22.513Z,0.4
2023-04-26T13:28:25.819Z,0.4
2023-04-26T13:29:29.111Z,0.3
2023-04-26T13:30:32.399Z,0.4
2023-04-26T13:31:35.676Z,0.4
2023-04-26T13:32:38.978Z,0.2
2023-04-26T13:33:42.286Z,0.3
2023-04-26T13:34:45.565Z,0.5
2023-04-26T13:35:48.862Z,0.4
2023-04-26T13:36:52.154Z,0.4
2023-04-26T13:37:55.431Z,0.4
2023-04-26T13:38:57.750Z,0.4
2023-04-26T13:40:01.038Z,0.4
2023-04-26T13:41:04.336Z,0.3
2023-04-26T13:42:07.637Z,0.4
2023-04-26T13:43:11.027Z,0.5
2023-04-26T13:44:14.345Z,0.4
2023-04-26T13:45:17.616Z,0.5
2023-04-26T13:46:19.933Z,0.4
2023-04-26T13:47:22.241Z,0.3
2023-04-26T13:48:25.537Z,0.4
2023-04-26T13:49:28.826Z,0.4
2023-04-26T13:50:31.140Z,0.4
2023-04-26T13:51:33.435Z,0.4
2023-04-26T13:52:36.731Z,0.3
2023-04-26T13:53:40.046Z,0.3
2023-04-26T13:54:43.310Z,0.4
2023-04-26T13:55:46.625Z,0.3
2023-04-26T13:56:49.895Z,0.4
2023-04-26T13:57:53.181Z,0.5
2023-04-26T13:58:56.527Z,0.5
2023-04-26T13:59:59.773Z,0.4
2023-04-26T14:01:03.062Z,0.4
2023-04-26T14:02:06.426Z,0.5
2023-04-26T14:03:09.649Z,0.4
2023-04-26T14:04:12.962Z,0.4
2023-04-26T14:05:15.241Z,0.4
2023-04-26T14:06:18.542Z,0.3
2023-04-26T14:07:21.818Z,0.4
2023-04-26T14:08:25.124Z,0.5
2023-04-26T14:09:28.424Z,0.5
2023-04-26T14:10:31.841Z,0.5
2023-04-26T14:11:35.002Z,0.4
2023-04-26T14:12:37.326Z,0.4
2023-04-26T14:13:39.609Z,0.5
2023-04-26T14:14:41.989Z,0.4
2023-04-26T14:15:44.249Z,0.4
2023-04-26T14:16:47.557Z,0.4
2023-04-26T14:17:50.825Z,0.5
2023-04-26T14:18:54.164Z,0.4
2023-04-26T14:19:57.420Z,0.4
2023-04-26T14:21:00.693Z,0.4
2023-04-26T14:22:04.096Z,0.5
2023-04-26T14:23:07.286Z,0.4
2023-04-26T14:24:10.956Z,0.4
2023-04-26T14:25:14.256Z,0.3
2023-04-26T14:26:17.580Z,0.4
2023-04-26T14:27:20.876Z,0.4
2023-04-26T14:28:24.117Z,0.4
2023-04-26T14:29:26.416Z,0.4
2023-04-26T14:30:29.722Z,0.4
2023-04-26T14:31:33.006Z,0.3
2023-04-26T14:32:36.308Z,0.3
2023-04-26T14:33:39.652Z,0.4
2023-04-26T14:34:42.931Z,0.4
2023-04-26T14:35:46.193Z,0.4
2023-04-26T14:36:48.559Z,0.4
2023-04-26T14:37:50.794Z,0.5